Terminal Aerodrome Forecast
Issued by NWS

Home | Current Version | Previous Version | Text Only | Print | Product List | Glossary On
Versions: 1 2 3 4 5 6 7 8 9 10 11 12
000
FTUS45 KGJT 191738
TAFMTJ
TAF
KMTJ 191738Z 1918/2018 33006KT P6SM BKN120
     FM200000 14006KT P6SM BKN100
     FM201700 21011G20KT P6SM FEW090 FEW250=

USA.gov is the U.S. government's official web portal to all federal, state and local government web resources and services.